Time;durP1;ratioP1;P1;durP2;ratioP2;P2;SDS_P1;SDS_P2;PMS_P1;PMS_P2;Temp;Humidity;BMP_temperature;BMP_pressure;BME280_temperature;BME280_humidity;BME280_pressure;Samples;Min_cycle;Max_cycle;Signal;HPM_P1;HPM_P2
2022/11/19 00:01:32;;;;;;;31.77;30.47;;;;;;;2.43;100.00;101573.50;5032192;28;20817;-49
2022/11/19 00:04:00;;;;;;;33.30;31.97;;;;;;;2.40;100.00;101563.22;5032846;28;20432;-45
2022/11/19 00:06:29;;;;;;;31.90;30.50;;;;;;;2.34;100.00;101564.53;5032500;28;20436;-47
2022/11/19 00:08:56;;;;;;;33.27;31.77;;;;;;;2.32;100.00;101566.47;5031169;28;20448;-44
2022/11/19 00:14:11;;;;;;;32.40;31.00;;;;;;;2.34;100.00;101567.19;5031365;28;20555;-46
2022/11/19 00:16:38;;;;;;;31.47;30.17;;;;;;;2.37;100.00;101580.09;5032365;28;20938;-47
2022/11/19 00:19:06;;;;;;;31.77;30.47;;;;;;;2.36;100.00;101570.50;5032309;28;20448;-44
2022/11/19 00:21:35;;;;;;;32.30;30.80;;;;;;;2.38;100.00;101570.41;5031618;28;20460;-45
2022/11/19 00:24:03;;;;;;;31.57;30.27;;;;;;;2.39;100.00;101572.91;5032062;28;20439;-45
2022/11/19 00:26:31;;;;;;;32.37;30.97;;;;;;;2.39;100.00;101572.91;5032329;28;20767;-44
2022/11/19 00:28:58;;;;;;;32.07;30.60;;;;;;;2.39;100.00;101570.25;5031404;28;20980;-44
2022/11/19 00:31:26;;;;;;;32.97;31.47;;;;;;;2.40;100.00;101569.31;5030533;28;20490;-44
2022/11/19 00:33:54;;;;;;;32.67;31.17;;;;;;;2.39;100.00;101575.53;5032092;28;20490;-47
2022/11/19 00:36:23;;;;;;;32.30;30.90;;;;;;;2.42;100.00;101577.09;5032071;28;20436;-47
2022/11/19 00:38:51;;;;;;;32.33;30.93;;;;;;;2.44;100.00;101576.00;5031850;28;20853;-45
2022/11/19 00:41:19;;;;;;;33.70;32.30;;;;;;;2.45;100.00;101588.19;5031537;28;20432;-48
2022/11/19 00:43:46;;;;;;;30.80;29.50;;;;;;;2.46;100.00;101578.50;5031977;28;20424;-44
2022/11/19 00:46:14;;;;;;;31.57;30.23;;;;;;;2.47;100.00;101578.41;5031757;28;20435;-43
2022/11/19 00:48:42;;;;;;;31.47;30.23;;;;;;;2.50;100.00;101579.94;5031715;28;20437;-47
2022/11/19 00:51:11;;;;;;;33.43;32.03;;;;;;;2.52;100.00;101575.38;5030423;28;20439;-43
2022/11/19 00:53:39;;;;;;;32.10;30.70;;;;;;;2.54;100.00;101587.44;5022510;28;20447;-46
2022/11/19 00:56:10;;;;;;;32.00;30.30;;;;;;;2.58;100.00;101590.69;5031793;28;20471;-43
2022/11/19 00:58:38;;;;;;;31.33;30.00;;;;;;;2.59;100.00;101601.09;5031865;28;20432;-46
2022/11/19 01:01:07;;;;;;;30.77;29.47;;;;;;;2.64;100.00;101595.44;5031539;28;20929;-45
2022/11/19 01:03:35;;;;;;;31.50;30.20;;;;;;;2.64;100.00;101590.19;5031190;28;20997;-46
2022/11/19 01:06:03;;;;;;;30.57;29.27;;;;;;;2.65;100.00;101605.88;5031885;28;20440;-44
2022/11/19 01:08:31;;;;;;;31.50;30.10;;;;;;;2.62;100.00;101597.38;5031781;28;20481;-42
2022/11/19 01:11:04;;;;;;;31.40;30.00;;;;;;;2.64;100.00;101611.25;5030731;28;20421;-43
2022/11/19 01:13:36;;;;;;;32.17;30.67;;;;;;;2.57;100.00;101608.28;5030710;28;20471;-46
2022/11/19 01:16:07;;;;;;;31.73;30.43;;;;;;;2.55;100.00;101604.09;5031569;28;20476;-46
2022/11/19 01:18:36;;;;;;;31.70;30.40;;;;;;;2.53;100.00;101591.06;5031733;28;20460;-43
2022/11/19 01:21:05;;;;;;;30.70;29.50;;;;;;;2.51;100.00;101600.06;5031333;28;20444;-45
2022/11/19 01:23:33;;;;;;;30.50;29.30;;;;;;;2.48;100.00;101606.38;5031001;28;20476;-44
2022/11/19 01:26:01;;;;;;;31.17;29.67;;;;;;;2.48;100.00;101603.75;5031611;28;21083;-44
2022/11/19 01:28:29;;;;;;;30.30;29.10;;;;;;;2.41;100.00;101599.13;5031240;28;20436;-45
2022/11/19 01:30:58;;;;;;;30.50;29.20;;;;;;;2.42;100.00;101604.25;5031223;28;20821;-45
2022/11/19 01:33:26;;;;;;;30.30;28.73;;;;;;;2.41;100.00;101607.84;5030976;28;20464;-44
2022/11/19 01:35:58;;;;;;;30.87;29.57;;;;;;;2.42;100.00;101604.25;5031454;28;20468;-43
2022/11/19 01:38:27;;;;;;;29.70;28.50;;;;;;;2.46;100.00;101604.84;5031329;28;20498;-42
2022/11/19 01:40:55;;;;;;;29.97;28.70;;;;;;;2.48;100.00;101610.84;5031282;28;20436;-44
2022/11/19 01:43:42;;;;;;;30.30;29.10;;;;;;;2.50;100.00;101601.84;5030718;28;20515;-45
2022/11/19 01:46:13;;;;;;;30.50;29.00;;;;;;;2.51;100.00;101613.22;5031341;28;20432;-45
2022/11/19 01:48:45;;;;;;;31.37;30.07;;;;;;;2.54;100.00;101600.63;5031214;28;20425;-48
2022/11/19 01:51:17;;;;;;;29.73;28.53;;;;;;;2.56;100.00;101613.69;5030566;28;20455;-45
2022/11/19 01:53:47;;;;;;;30.00;28.70;;;;;;;2.56;100.00;101606.63;5022826;28;20420;-44
2022/11/19 01:56:18;;;;;;;30.13;28.83;;;;;;;2.55;100.00;101612.00;5031156;28;20464;-45
2022/11/19 01:58:49;;;;;;;30.43;29.13;;;;;;;2.53;100.00;101611.28;5031263;28;20435;-45
2022/11/19 02:01:19;;;;;;;30.60;29.30;;;;;;;2.53;100.00;101616.56;5030584;28;20432;-43
2022/11/19 02:03:48;;;;;;;30.90;29.40;;;;;;;2.54;100.00;101607.72;5031562;28;20424;-44
2022/11/19 02:06:16;;;;;;;30.93;29.43;;;;;;;2.53;100.00;101609.50;5033764;28;20436;-43
2022/11/19 02:08:46;;;;;;;30.83;29.30;;;;;;;2.44;100.00;101618.13;5034887;28;20440;-44
2022/11/19 02:11:33;;;;;;;30.50;29.10;;;;;;;2.44;100.00;101618.13;5034277;28;20575;-45
2022/11/19 02:14:15;;;;;;;30.63;29.40;;;;;;;2.37;100.00;101622.22;5034639;28;20428;-44
2022/11/19 02:16:55;;;;;;;29.53;28.30;;;;;;;2.37;100.00;101619.56;5034432;28;20525;-43
2022/11/19 02:19:52;;;;;;;31.43;29.93;;;;;;;2.43;100.00;101626.97;5034430;28;20506;-44
2022/11/19 02:22:38;;;;;;;30.00;28.80;;;;;;;2.47;100.00;101622.31;5033886;28;20468;-45
2022/11/19 02:25:18;;;;;;;29.83;28.60;;;;;;;2.44;100.00;101623.41;5034868;28;20769;-45
2022/11/19 02:28:04;;;;;;;29.93;28.73;;;;;;;2.45;100.00;101621.59;5034568;28;20436;-44
2022/11/19 02:30:36;;;;;;;31.10;29.80;;;;;;;2.39;100.00;101616.84;5034215;28;20468;-45
2022/11/19 02:33:08;;;;;;;32.30;31.00;;;;;;;2.35;100.00;101620.66;5033687;28;20475;-45
2022/11/19 02:35:45;;;;;;;32.57;31.03;;;;;;;2.30;100.00;101614.94;5034138;28;20472;-45
2022/11/19 02:38:21;;;;;;;33.50;31.90;;;;;;;2.24;100.00;101610.97;5034265;28;20471;-45
2022/11/19 02:40:55;;;;;;;32.67;31.20;;;;;;;2.16;100.00;101616.00;5033990;28;20507;-44
2022/11/19 02:43:27;;;;;;;31.03;29.73;;;;;;;2.11;100.00;101619.03;5033674;28;20459;-44
2022/11/19 02:45:59;;;;;;;32.43;30.93;;;;;;;2.12;100.00;101622.50;5034009;28;20824;-44
2022/11/19 02:48:32;;;;;;;31.80;30.40;;;;;;;2.10;100.00;101613.88;5034168;28;20440;-44
2022/11/19 02:51:02;;;;;;;31.07;29.67;;;;;;;2.10;100.00;101616.50;5033748;28;20479;-45
2022/11/19 02:53:30;;;;;;;31.73;30.43;;;;;;;2.08;100.00;101621.06;5024966;28;21016;-43
2022/11/19 02:56:13;;;;;;;32.73;31.23;;;;;;;2.07;100.00;101620.22;5033743;28;20484;-46
2022/11/19 03:04:31;;;;;;;31.73;30.10;;;;;;;2.01;100.00;101609.31;5033697;28;20519;-44
2022/11/19 03:07:04;;;;;;;30.90;29.17;;;;;;;2.01;100.00;101625.94;5034037;28;20871;-44
2022/11/19 03:09:35;;;;;;;31.53;30.03;;;;;;;2.03;100.00;101631.91;5033593;28;20488;-44
2022/11/19 03:12:12;;;;;;;30.90;29.60;;;;;;;2.04;100.00;101619.59;5033139;28;20455;-43
2022/11/19 03:17:52;;;;;;;32.27;30.87;;;;;;;2.08;100.00;101624.53;5033149;28;20443;-46
2022/11/19 03:20:25;;;;;;;31.27;29.87;;;;;;;2.11;100.00;101628.69;5033531;28;20451;-47
2022/11/19 03:22:58;;;;;;;31.93;30.53;;;;;;;2.11;100.00;101626.06;5032815;28;21046;-46
2022/11/19 03:25:28;;;;;;;31.87;30.47;;;;;;;2.08;100.00;101635.06;5033222;28;20437;-45
2022/11/19 03:28:00;;;;;;;31.73;30.33;;;;;;;2.06;100.00;101634.31;5033486;28;20435;-45
2022/11/19 03:30:30;;;;;;;31.40;30.10;;;;;;;1.98;100.00;101635.88;5056267;22;20475;-45
2022/11/19 03:33:02;;;;;;;32.93;31.43;;;;;;;1.90;100.00;101638.25;5045935;28;20855;-47
2022/11/19 03:35:35;;;;;;;34.20;32.60;;;;;;;1.81;100.00;101631.94;5052925;28;20798;-47
2022/11/19 03:38:07;;;;;;;32.33;30.90;;;;;;;1.73;100.00;101641.38;5052962;28;20435;-45
2022/11/19 03:40:36;;;;;;;32.60;31.20;;;;;;;1.63;100.00;101651.75;5052865;28;20796;-47
2022/11/19 03:43:08;;;;;;;32.70;31.30;;;;;;;1.54;100.00;101653.28;5052299;28;20486;-45
2022/11/19 03:45:40;;;;;;;33.07;31.67;;;;;;;1.43;100.00;101644.53;5052750;28;20427;-45
2022/11/19 03:48:11;;;;;;;30.97;29.37;;;;;;;1.37;100.00;101645.84;5052702;28;20431;-46
2022/11/19 03:50:47;;;;;;;31.77;30.30;;;;;;;1.32;100.00;101644.50;5052499;28;20537;-46
2022/11/19 03:53:15;;;;;;;32.90;31.30;;;;;;;1.22;100.00;101647.00;5034332;28;20459;-46
2022/11/19 03:55:46;;;;;;;31.87;30.47;;;;;;;1.18;100.00;101644.69;5032502;28;20428;-45
2022/11/19 03:58:14;;;;;;;33.20;31.70;;;;;;;1.10;100.00;101638.25;5032722;28;20447;-45
2022/11/19 04:00:42;;;;;;;32.90;31.30;;;;;;;1.01;100.00;101638.94;5032333;28;20463;-45
2022/11/19 04:03:11;;;;;;;32.10;30.33;;;;;;;1.00;100.00;101628.50;5032019;28;20538;-45
2022/11/19 04:05:38;;;;;;;33.87;32.37;;;;;;;0.98;100.00;101633.91;5032686;28;20482;-46
2022/11/19 04:08:06;;;;;;;33.70;32.00;;;;;;;0.99;100.00;101648.69;5032509;28;20444;-46
2022/11/19 04:10:33;;;;;;;34.70;33.00;;;;;;;1.02;100.00;101642.34;5032261;28;20506;-46
2022/11/19 04:13:01;;;;;;;33.83;32.23;;;;;;;1.07;100.00;101632.38;5031643;28;20460;-46
2022/11/19 04:15:29;;;;;;;34.23;32.63;;;;;;;1.13;100.00;101636.31;5032187;28;20428;-47
2022/11/19 04:17:56;;;;;;;33.87;32.37;;;;;;;1.16;100.00;101636.94;5032305;28;20529;-44
2022/11/19 04:20:25;;;;;;;35.23;33.50;;;;;;;1.21;100.00;101636.59;5032060;28;20456;-47
2022/11/19 04:22:53;;;;;;;34.83;32.90;;;;;;;1.24;100.00;101642.44;5031488;28;20876;-45
2022/11/19 04:25:20;;;;;;;35.07;33.37;;;;;;;1.28;100.00;101636.03;5032136;28;20838;-46
2022/11/19 04:27:48;;;;;;;34.67;33.07;;;;;;;1.29;100.00;101648.19;5031911;28;20436;-46
2022/11/19 04:30:16;;;;;;;36.87;34.50;;;;;;;1.31;100.00;101643.69;5031979;28;20471;-45
2022/11/19 04:32:44;;;;;;;35.67;34.07;;;;;;;1.31;100.00;101643.69;5031265;28;20471;-45
2022/11/19 04:35:12;;;;;;;36.33;34.70;;;;;;;1.32;100.00;101640.09;5032117;28;20478;-47
2022/11/19 04:37:41;;;;;;;36.60;34.90;;;;;;;1.35;100.00;101639.84;5031906;28;20482;-46
2022/11/19 04:40:10;;;;;;;35.30;33.70;;;;;;;1.38;100.00;101630.88;5031875;28;20502;-46
2022/11/19 04:42:38;;;;;;;35.57;33.87;;;;;;;1.40;100.00;101629.84;5031066;28;20468;-46
2022/11/19 04:45:06;;;;;;;36.30;34.50;;;;;;;1.39;100.00;101633.41;5031813;28;20929;-48
2022/11/19 04:47:34;;;;;;;36.10;34.40;;;;;;;1.41;100.00;101641.16;5032006;28;20672;-45
2022/11/19 04:50:01;;;;;;;34.50;33.00;;;;;;;1.41;100.00;101630.66;5031919;28;20448;-46
2022/11/19 04:52:31;;;;;;;35.20;33.50;;;;;;;1.40;100.00;101634.25;5030837;28;20464;-45
2022/11/19 04:55:09;;;;;;;35.30;33.73;;;;;;;1.41;100.00;101630.66;5031569;28;20798;-46
2022/11/19 04:57:37;;;;;;;36.93;35.13;;;;;;;1.40;100.00;101634.25;5031840;28;20555;-45
2022/11/19 05:00:06;;;;;;;35.87;34.27;;;;;;;1.37;100.00;101634.50;5031758;28;20456;-45
2022/11/19 05:02:34;;;;;;;34.80;33.20;;;;;;;1.34;100.00;101638.19;5030927;28;20464;-45
2022/11/19 05:05:02;;;;;;;33.83;32.33;;;;;;;1.27;100.00;101636.13;5031654;28;20440;-45
2022/11/19 05:07:29;;;;;;;32.77;31.13;;;;;;;1.26;100.00;101643.16;5031489;28;20507;-45
2022/11/19 05:09:57;;;;;;;33.20;31.50;;;;;;;1.23;100.00;101638.13;5031370;28;20452;-45
2022/11/19 05:12:26;;;;;;;35.50;33.90;;;;;;;1.20;100.00;101637.53;5030965;28;20471;-46
2022/11/19 05:14:54;;;;;;;35.67;33.80;;;;;;;1.13;100.00;101631.91;5031579;28;20807;-46
2022/11/19 05:17:21;;;;;;;34.30;32.80;;;;;;;1.07;100.00;101627.97;5031507;28;20476;-45
2022/11/19 05:19:49;;;;;;;34.90;33.30;;;;;;;1.01;100.00;101631.03;5031295;28;20472;-45
2022/11/19 05:22:16;;;;;;;35.43;33.63;;;;;;;0.98;100.00;101627.81;5030726;28;20472;-50
2022/11/19 05:24:44;;;;;;;36.20;34.50;;;;;;;0.94;100.00;101628.97;5031646;28;20439;-48
2022/11/19 05:27:12;;;;;;;34.47;32.87;;;;;;;0.91;100.00;101623.94;5031346;28;20432;-48
2022/11/19 05:29:41;;;;;;;34.80;33.13;;;;;;;0.90;100.00;101630.97;5031366;28;20834;-45
2022/11/19 05:32:08;;;;;;;36.10;34.50;;;;;;;0.90;100.00;101630.97;5030763;28;20984;-45
2022/11/19 05:34:36;;;;;;;35.53;33.73;;;;;;;0.92;100.00;101626.47;5031236;28;20925;-47
2022/11/19 05:37:03;;;;;;;38.57;36.57;;;;;;;0.92;100.00;101631.72;5031404;28;20514;-46
2022/11/19 05:39:32;;;;;;;36.47;34.67;;;;;;;0.91;100.00;101624.78;5031491;28;20544;-47
2022/11/19 05:42:00;;;;;;;36.80;34.97;;;;;;;0.91;100.00;101629.19;5034438;28;20468;-46
2022/11/19 05:44:27;;;;;;;38.00;36.10;;;;;;;0.91;100.00;101621.31;5035137;28;20793;-45
2022/11/19 05:46:58;;;;;;;37.17;35.43;;;;;;;0.88;100.00;101632.03;5035032;28;20428;-47
2022/11/19 05:49:26;;;;;;;36.37;34.47;;;;;;;0.82;100.00;101630.72;5034971;28;20448;-45
2022/11/19 05:51:53;;;;;;;34.00;32.40;;;;;;;0.83;100.00;101627.16;5034119;28;20459;-47
2022/11/19 05:54:21;;;;;;;35.10;33.40;;;;;;;0.84;100.00;101628.78;5034770;28;20462;-44
2022/11/19 05:56:49;;;;;;;35.30;33.70;;;;;;;0.84;100.00;101630.56;5034841;28;20476;-45
2022/11/19 05:59:16;;;;;;;35.00;33.50;;;;;;;0.83;100.00;101631.56;5034816;28;20478;-45
2022/11/19 06:01:44;;;;;;;35.97;34.27;;;;;;;0.77;100.00;101634.63;5034002;28;20981;-46
2022/11/19 06:04:13;;;;;;;37.30;35.60;;;;;;;0.70;100.00;101631.59;5034663;28;20506;-45
2022/11/19 06:06:41;;;;;;;36.47;34.83;;;;;;;0.63;100.00;101632.97;5034640;28;20493;-45
2022/11/19 06:09:09;;;;;;;34.50;32.80;;;;;;;0.57;100.00;101639.53;5034696;28;20431;-45
2022/11/19 06:11:49;;;;;;;33.60;32.00;;;;;;;0.52;100.00;101639.03;5033168;28;20456;-45
2022/11/19 06:14:19;;;;;;;34.90;33.20;;;;;;;0.45;100.00;101636.94;5034412;28;20432;-46
2022/11/19 06:16:46;;;;;;;35.90;34.20;;;;;;;0.42;100.00;101640.63;5015116;28;20784;-48
2022/11/19 06:19:15;;;;;;;37.33;35.50;;;;;;;0.38;100.00;101644.44;5014767;28;20470;-46
2022/11/19 06:21:43;;;;;;;36.00;34.13;;;;;;;0.33;100.00;101638.66;5013986;28;20467;-45
2022/11/19 06:24:12;;;;;;;36.93;34.93;;;;;;;0.27;100.00;101641.72;5014630;28;20487;-45
2022/11/19 06:26:40;;;;;;;36.00;34.33;;;;;;;0.22;100.00;101648.22;5014467;28;20444;-45
2022/11/19 06:29:08;;;;;;;35.60;34.00;;;;;;;0.17;100.00;101659.06;5014585;28;20433;-47
2022/11/19 06:31:35;;;;;;;37.30;35.50;;;;;;;0.14;100.00;101655.81;5012561;28;20465;-43
2022/11/19 06:34:03;;;;;;;34.60;33.00;;;;;;;0.12;100.00;101662.97;5014459;28;20436;-46
2022/11/19 06:36:32;;;;;;;36.97;35.27;;;;;;;0.12;100.00;101655.91;5014458;28;20432;-43
2022/11/19 06:39:08;;;;;;;35.87;34.27;;;;;;;0.13;100.00;101662.84;5014149;28;20841;-43
2022/11/19 06:41:36;;;;;;;36.87;35.13;;;;;;;0.16;100.00;101667.88;5013811;28;20807;-44
2022/11/19 06:44:04;;;;;;;36.30;34.50;;;;;;;0.18;100.00;101665.16;5014329;28;20787;-44
2022/11/19 06:46:32;;;;;;;34.90;33.20;;;;;;;0.22;100.00;101670.06;5014348;28;20440;-44
2022/11/19 06:48:59;;;;;;;35.83;34.13;;;;;;;0.25;100.00;101675.09;5014200;28;20429;-44
2022/11/19 06:51:27;;;;;;;37.33;35.73;;;;;;;0.28;100.00;101671.41;5014961;28;20490;-43
2022/11/19 06:53:56;;;;;;;36.30;34.57;;;;;;;0.31;100.00;101669.41;5033834;28;20443;-43
2022/11/19 06:56:24;;;;;;;35.40;33.60;;;;;;;0.35;100.00;101670.88;5033706;28;20432;-44
2022/11/19 06:58:55;;;;;;;35.10;33.50;;;;;;;0.39;100.00;101669.69;5033710;28;20468;-43
2022/11/19 07:01:23;;;;;;;35.80;33.87;;;;;;;0.41;100.00;101659.94;5032198;28;20440;-44
2022/11/19 07:03:50;;;;;;;35.13;33.53;;;;;;;0.47;100.00;101663.91;5033698;28;20428;-44
2022/11/19 07:06:18;;;;;;;35.40;33.60;;;;;;;0.57;100.00;101670.16;5033451;28;20486;-46
2022/11/19 07:08:45;;;;;;;36.50;34.80;;;;;;;0.65;100.00;101673.09;5032488;28;20435;-45
2022/11/19 07:11:26;;;;;;;36.30;34.50;;;;;;;0.74;100.00;101666.34;5033405;28;20504;-43
2022/11/19 07:13:57;;;;;;;36.30;34.50;;;;;;;0.81;100.00;101664.94;5033422;28;20436;-44
2022/11/19 07:16:27;;;;;;;37.17;35.37;;;;;;;0.88;100.00;101658.31;5033533;28;20428;-43
2022/11/19 07:18:57;;;;;;;36.93;34.93;;;;;;;0.92;100.00;101665.00;5032202;28;20475;-44
2022/11/19 07:21:25;;;;;;;36.20;34.30;;;;;;;0.94;100.00;101663.94;5045318;28;20447;-44
2022/11/19 07:23:54;;;;;;;35.83;34.03;;;;;;;0.94;100.00;101657.84;5052616;28;20454;-43
2022/11/19 07:26:23;;;;;;;34.23;32.63;;;;;;;0.93;100.00;101657.00;5052971;28;20427;-43
2022/11/19 07:28:51;;;;;;;36.10;34.30;;;;;;;0.97;100.00;101649.75;5052920;28;20428;-44
2022/11/19 07:31:18;;;;;;;33.83;32.23;;;;;;;1.04;100.00;101653.59;5051136;28;20455;-44
2022/11/19 07:33:46;;;;;;;35.00;33.40;;;;;;;1.06;100.00;101652.53;5053058;28;20427;-45
2022/11/19 07:36:14;;;;;;;34.43;32.83;;;;;;;1.08;100.00;101648.00;5052808;28;20427;-45
2022/11/19 07:38:45;;;;;;;35.90;34.07;;;;;;;1.16;100.00;101644.81;5052766;28;20475;-45
2022/11/19 07:44:00;;;;;;;35.23;33.63;;;;;;;1.27;100.00;101649.25;5052743;28;20513;-44
2022/11/19 07:46:27;;;;;;;36.00;34.03;;;;;;;1.33;100.00;101649.66;5052592;28;20427;-45
2022/11/19 07:48:56;;;;;;;36.77;34.83;;;;;;;1.41;100.00;101649.91;5052639;28;20470;-49
2022/11/19 07:51:24;;;;;;;35.90;34.20;;;;;;;1.46;100.00;101644.31;5048603;28;20447;-45
2022/11/19 07:53:54;;;;;;;36.60;34.70;;;;;;;1.49;100.00;101652.78;5032458;28;20424;-44
2022/11/19 07:56:23;;;;;;;36.43;34.43;;;;;;;1.53;100.00;101656.84;5032356;28;20432;-44
2022/11/19 07:58:51;;;;;;;36.07;34.37;;;;;;;1.58;100.00;101648.63;5032510;28;20477;-47
2022/11/19 08:01:22;;;;;;;35.37;33.67;;;;;;;1.62;100.00;101656.16;5030521;28;20456;-47
2022/11/19 08:03:51;;;;;;;36.43;34.73;;;;;;;1.64;100.00;101658.69;5024705;28;20428;-47
2022/11/19 08:06:24;;;;;;;37.40;35.60;;;;;;;1.63;100.00;101655.22;5031838;28;20468;-48
2022/11/19 08:08:52;;;;;;;37.13;35.43;;;;;;;1.65;100.00;101650.66;5035577;28;20462;-47
2022/11/19 08:11:20;;;;;;;38.47;36.67;;;;;;;1.72;100.00;101651.03;5051220;28;20972;-48
2022/11/19 08:13:47;;;;;;;38.10;35.93;;;;;;;1.73;100.00;101655.34;5052007;28;21136;-47
2022/11/19 08:18:11;;;;;;;38.27;36.47;;;;;;;1.78;100.00;101652.38;5051838;28;20856;-47
2022/11/19 08:19:06;;;;;;;38.00;36.10;;;;;;;1.80;100.00;101660.97;5050692;28;20483;-50
2022/11/19 08:21:34;;;;;;;36.70;34.73;;;;;;;1.79;100.00;101660.16;5051404;28;20501;-48
2022/11/19 08:24:02;;;;;;;37.80;36.10;;;;;;;1.80;100.00;101653.91;5052309;28;20439;-50
2022/11/19 08:26:29;;;;;;;36.20;34.40;;;;;;;1.82;100.00;101651.19;5052092;28;20430;-46
2022/11/19 08:28:57;;;;;;;35.87;34.07;;;;;;;1.83;100.00;101653.69;5052001;28;20427;-46
2022/11/19 08:31:25;;;;;;;35.93;34.13;;;;;;;1.84;100.00;101647.47;5051140;28;20458;-51
2022/11/19 08:33:53;;;;;;;37.57;35.47;;;;;;;1.91;100.00;101653.91;5051839;28;20438;-52
2022/11/19 08:36:22;;;;;;;36.27;34.60;;;;;;;1.98;100.00;101638.50;5051978;28;20432;-47
2022/11/19 08:38:49;;;;;;;36.63;34.40;;;;;;;2.01;100.00;101644.38;5051819;28;20494;-47
2022/11/19 08:44:03;;;;;;;37.00;35.30;;;;;;;2.05;100.00;101637.06;5051471;28;20442;-49
2022/11/19 08:46:31;;;;;;;36.40;34.50;;;;;;;2.09;100.00;101639.34;5051558;28;20432;-45
2022/11/19 08:48:58;;;;;;;37.27;35.37;;;;;;;2.15;100.00;101644.13;5051627;28;20828;-49
2022/11/19 08:51:27;;;;;;;36.30;34.30;;;;;;;2.15;100.00;101649.38;5048208;28;20544;-49
2022/11/19 08:53:55;;;;;;;37.17;35.50;;;;;;;2.11;100.00;101644.50;5031778;28;20740;-45
2022/11/19 08:56:23;;;;;;;37.33;35.47;;;;;;;2.11;100.00;101652.38;5030752;28;20476;-46
2022/11/19 08:58:53;;;;;;;36.37;34.57;;;;;;;2.12;100.00;101654.06;5029486;28;20479;-46
2022/11/19 09:01:27;;;;;;;37.77;35.97;;;;;;;2.15;100.00;101651.19;5029549;28;20420;-49
2022/11/19 09:03:55;;;;;;;36.70;34.70;;;;;;;2.17;100.00;101655.38;5038383;28;20463;-46
2022/11/19 09:06:23;;;;;;;37.27;35.47;;;;;;;2.24;100.00;101642.53;5030989;28;20485;-48
2022/11/19 09:08:51;;;;;;;35.97;34.07;;;;;;;2.28;100.00;101646.63;5035626;28;20429;-45
2022/11/19 09:11:21;;;;;;;36.00;34.30;;;;;;;2.30;100.00;101643.88;5029522;28;20452;-46
2022/11/19 09:13:48;;;;;;;38.13;36.13;;;;;;;2.31;100.00;101640.28;5031291;28;20852;-47
2022/11/19 09:16:16;;;;;;;39.17;36.77;;;;;;;2.32;100.00;101640.16;5037750;28;20446;-46
2022/11/19 09:18:44;;;;;;;38.60;36.47;;;;;;;2.36;100.00;101633.69;5041590;28;20468;-45
2022/11/19 09:21:12;;;;;;;37.83;35.93;;;;;;;2.36;100.00;101641.59;5034118;28;20459;-45
2022/11/19 09:23:40;;;;;;;36.63;34.73;;;;;;;2.29;100.00;101640.41;5034378;28;20536;-46
2022/11/19 09:26:12;;;;;;;37.87;35.97;;;;;;;2.32;100.00;101639.31;5035212;28;20439;-47
2022/11/19 09:28:40;;;;;;;38.30;36.53;;;;;;;2.32;100.00;101634.91;5034141;28;20451;-45
2022/11/19 09:31:13;;;;;;;40.37;38.40;;;;;;;2.38;100.00;101649.38;5057346;22;20487;-50
2022/11/19 09:33:44;;;;;;;39.90;38.00;;;;;;;2.36;100.00;101638.94;5045243;28;20541;-47
2022/11/19 09:36:13;;;;;;;39.40;37.40;;;;;;;2.39;100.00;101632.63;5054720;28;20473;-47
2022/11/19 09:38:41;;;;;;;39.03;37.03;;;;;;;2.42;100.00;101641.09;5041984;28;20479;-47
2022/11/19 09:41:31;;;;;;;38.67;36.47;;;;;;;2.50;100.00;101636.06;5033753;28;20452;-49
2022/11/19 09:44:12;;;;;;;42.10;39.60;;;;;;;2.57;100.00;101631.97;5034672;28;20855;-45
2022/11/19 09:46:47;;;;;;;42.13;40.13;;;;;;;2.62;100.00;101629.81;5034475;28;20935;-45
2022/11/19 09:49:21;;;;;;;41.33;39.23;;;;;;;2.62;100.00;101634.25;5033540;28;20435;-52
2022/11/19 09:51:56;;;;;;;39.37;37.47;;;;;;;2.78;100.00;101622.34;5035203;28;20490;-48
2022/11/19 09:54:24;;;;;;;39.33;37.43;;;;;;;2.89;100.00;101628.53;5034576;28;20431;-48
2022/11/19 09:56:55;;;;;;;40.40;38.50;;;;;;;2.85;100.00;101625.31;5034475;28;20791;-48
2022/11/19 09:59:35;;;;;;;40.20;38.20;;;;;;;2.81;100.00;101638.88;5032556;28;20482;-46
2022/11/19 10:02:12;;;;;;;39.10;37.23;;;;;;;2.86;100.00;101639.31;5032783;28;20471;-46
2022/11/19 10:04:40;;;;;;;37.50;35.50;;;;;;;2.94;100.00;101632.47;5037167;28;20482;-49
2022/11/19 10:07:15;;;;;;;37.53;35.77;;;;;;;3.08;100.00;101633.94;5034361;28;20490;-46
2022/11/19 10:09:55;;;;;;;37.73;35.93;;;;;;;3.12;100.00;101628.31;5034080;28;20493;-50
2022/11/19 10:12:45;;;;;;;38.23;36.37;;;;;;;3.18;100.00;101626.97;5032796;28;20834;-51
2022/11/19 10:15:22;;;;;;;38.40;36.60;;;;;;;3.28;100.00;101630.53;5034272;28;20439;-47
2022/11/19 10:18:00;;;;;;;39.10;37.30;;;;;;;3.39;100.00;101619.06;5033497;28;20439;-47
2022/11/19 10:20:51;;;;;;;38.87;36.87;;;;;;;3.40;100.00;101616.31;5033083;28;20472;-48
2022/11/19 10:23:24;;;;;;;39.73;37.83;;;;;;;3.37;100.00;101619.22;5032772;28;20444;-47
2022/11/19 10:25:59;;;;;;;39.13;37.10;;;;;;;3.39;100.00;101609.34;5033807;28;20432;-50
2022/11/19 10:28:31;;;;;;;39.67;37.67;;;;;;;3.47;100.00;101606.91;5033083;28;20797;-49
2022/11/19 10:31:06;;;;;;;39.30;37.40;;;;;;;3.44;100.00;101609.78;5032760;28;20448;-47
2022/11/19 10:33:39;;;;;;;40.50;38.60;;;;;;;3.37;100.00;101606.03;5033932;28;20529;-47
2022/11/19 10:36:10;;;;;;;39.47;37.70;;;;;;;3.42;100.00;101595.06;5033916;28;20837;-45
2022/11/19 10:38:47;;;;;;;41.00;38.90;;;;;;;3.39;100.00;101597.97;5033254;28;20467;-48
2022/11/19 10:41:26;;;;;;;38.97;36.97;;;;;;;3.36;100.00;101596.44;5032676;28;20563;-46
2022/11/19 10:44:00;;;;;;;40.10;38.07;;;;;;;3.49;100.00;101585.69;5033198;28;20439;-46
2022/11/19 10:46:28;;;;;;;39.30;37.40;;;;;;;3.68;100.00;101586.59;5033590;28;20855;-48
2022/11/19 10:48:58;;;;;;;36.77;35.10;;;;;;;3.73;100.00;101578.31;5032625;28;20857;-46
2022/11/19 10:51:29;;;;;;;39.60;37.47;;;;;;;3.89;100.00;101576.00;5033172;28;20456;-46
2022/11/19 10:53:57;;;;;;;37.50;35.70;;;;;;;4.04;100.00;101568.56;5033625;28;20436;-50
2022/11/19 10:56:39;;;;;;;37.77;35.87;;;;;;;4.10;100.00;101570.66;5032784;28;20841;-50
2022/11/19 10:59:12;;;;;;;36.90;35.20;;;;;;;4.11;100.00;101561.78;5032684;28;20429;-48
2022/11/19 11:01:43;;;;;;;40.10;38.30;;;;;;;4.27;100.00;101559.47;5031735;28;20977;-47
2022/11/19 11:04:18;;;;;;;39.07;37.07;;;;;;;4.26;100.00;101550.72;5033531;28;20436;-51
2022/11/19 11:06:51;;;;;;;39.17;37.37;;;;;;;4.26;100.00;101550.72;5032997;28;20435;-48
2022/11/19 11:09:33;;;;;;;37.93;35.93;;;;;;;4.24;100.00;101551.81;5032289;28;20432;-48
2022/11/19 11:15:12;;;;;;;38.10;36.40;;;;;;;4.29;100.00;101539.88;5033244;28;20486;-47
2022/11/19 11:17:43;;;;;;;39.70;37.80;;;;;;;4.26;100.00;101539.31;5032632;28;20444;-45
2022/11/19 11:20:25;;;;;;;37.70;35.83;;;;;;;4.43;100.00;101546.56;5031776;28;20964;-47
2022/11/19 11:23:06;;;;;;;38.43;36.63;;;;;;;4.51;100.00;101535.31;5032291;28;20472;-45
2022/11/19 11:25:34;;;;;;;38.33;36.53;;;;;;;4.54;100.00;101524.47;5032579;28;20432;-49
2022/11/19 11:28:06;;;;;;;38.20;36.50;;;;;;;4.49;100.00;101524.88;5032326;28;20440;-46
2022/11/19 11:30:36;;;;;;;38.33;36.10;;;;;;;4.46;100.00;101525.16;5031415;28;20436;-50
2022/11/19 11:33:26;;;;;;;36.97;35.37;;;;;;;4.47;100.00;101527.66;5031935;28;20467;-45
2022/11/19 11:35:57;;;;;;;35.20;33.50;;;;;;;4.47;100.00;101526.81;5032706;28;20447;-45
2022/11/19 11:38:26;;;;;;;37.27;35.37;;;;;;;4.59;100.00;101524.88;5030957;28;20447;-50
2022/11/19 11:41:02;;;;;;;36.07;34.37;;;;;;;4.58;100.00;101517.91;5030923;28;20483;-50
2022/11/19 11:44:01;;;;;;;34.60;33.07;;;;;;;4.66;100.00;101523.38;5032472;28;21006;-46
2022/11/19 11:46:37;;;;;;;37.37;35.67;;;;;;;4.59;100.00;101515.16;5032206;28;20921;-47